sensor_id;sensor_type;location;lat;lon;timestamp;temperature;humidity
34644;DHT22;26931;43.498;-1.506;2023-04-15T00:01:28;14.90;98.30
34644;DHT22;26931;43.498;-1.506;2023-04-15T00:03:55;14.90;98.40
34644;DHT22;26931;43.498;-1.506;2023-04-15T00:06:21;14.90;98.40
34644;DHT22;26931;43.498;-1.506;2023-04-15T00:08:48;14.90;98.40
34644;DHT22;26931;43.498;-1.506;2023-04-15T00:11:15;14.90;98.50
34644;DHT22;26931;43.498;-1.506;2023-04-15T00:13:42;14.80;98.50
34644;DHT22;26931;43.498;-1.506;2023-04-15T00:16:09;15.00;98.50
34644;DHT22;26931;43.498;-1.506;2023-04-15T00:18:35;14.80;98.50
34644;DHT22;26931;43.498;-1.506;2023-04-15T00:21:02;14.80;98.60
34644;DHT22;26931;43.498;-1.506;2023-04-15T00:23:29;15.00;98.60
34644;DHT22;26931;43.498;-1.506;2023-04-15T00:25:55;14.90;98.50
34644;DHT22;26931;43.498;-1.506;2023-04-15T00:28:21;14.90;98.40
34644;DHT22;26931;43.498;-1.506;2023-04-15T00:30:47;15.00;98.30
34644;DHT22;26931;43.498;-1.506;2023-04-15T00:33:14;14.90;98.50
34644;DHT22;26931;43.498;-1.506;2023-04-15T00:35:41;15.00;98.10
34644;DHT22;26931;43.498;-1.506;2023-04-15T00:38:07;15.00;97.90
34644;DHT22;26931;43.498;-1.506;2023-04-15T00:40:33;15.00;97.80
34644;DHT22;26931;43.498;-1.506;2023-04-15T00:43:00;14.80;97.70
34644;DHT22;26931;43.498;-1.506;2023-04-15T00:45:26;14.90;97.60
34644;DHT22;26931;43.498;-1.506;2023-04-15T00:47:53;14.90;97.60
34644;DHT22;26931;43.498;-1.506;2023-04-15T00:50:20;14.90;97.70
34644;DHT22;26931;43.498;-1.506;2023-04-15T00:52:46;14.90;97.70
34644;DHT22;26931;43.498;-1.506;2023-04-15T00:55:13;14.90;97.80
34644;DHT22;26931;43.498;-1.506;2023-04-15T00:57:39;15.00;98.00
34644;DHT22;26931;43.498;-1.506;2023-04-15T01:00:05;14.90;98.10
34644;DHT22;26931;43.498;-1.506;2023-04-15T01:02:34;14.90;98.20
34644;DHT22;26931;43.498;-1.506;2023-04-15T01:05:02;14.90;98.30
34644;DHT22;26931;43.498;-1.506;2023-04-15T01:07:29;14.90;98.30
34644;DHT22;26931;43.498;-1.506;2023-04-15T01:09:55;14.90;98.40
34644;DHT22;26931;43.498;-1.506;2023-04-15T01:12:22;15.10;98.40
34644;DHT22;26931;43.498;-1.506;2023-04-15T01:14:49;14.80;98.30
34644;DHT22;26931;43.498;-1.506;2023-04-15T01:17:16;14.90;98.40
34644;DHT22;26931;43.498;-1.506;2023-04-15T01:19:42;14.90;98.40
34644;DHT22;26931;43.498;-1.506;2023-04-15T01:22:08;14.90;98.40
34644;DHT22;26931;43.498;-1.506;2023-04-15T01:24:35;14.90;98.40
34644;DHT22;26931;43.498;-1.506;2023-04-15T01:27:03;15.10;98.40
34644;DHT22;26931;43.498;-1.506;2023-04-15T01:29:31;14.90;98.30
34644;DHT22;26931;43.498;-1.506;2023-04-15T01:31:57;14.90;98.30
34644;DHT22;26931;43.498;-1.506;2023-04-15T01:34:23;14.90;98.20
34644;DHT22;26931;43.498;-1.506;2023-04-15T01:36:49;14.90;98.10
34644;DHT22;26931;43.498;-1.506;2023-04-15T01:39:16;14.90;98.10
34644;DHT22;26931;43.498;-1.506;2023-04-15T01:41:42;14.90;98.30
34644;DHT22;26931;43.498;-1.506;2023-04-15T01:44:08;14.90;97.80
34644;DHT22;26931;43.498;-1.506;2023-04-15T01:46:34;14.90;97.40
34644;DHT22;26931;43.498;-1.506;2023-04-15T01:49:00;14.80;97.20
34644;DHT22;26931;43.498;-1.506;2023-04-15T01:51:27;14.80;96.80
34644;DHT22;26931;43.498;-1.506;2023-04-15T01:53:53;14.80;96.70
34644;DHT22;26931;43.498;-1.506;2023-04-15T01:56:21;15.00;96.70
34644;DHT22;26931;43.498;-1.506;2023-04-15T01:58:49;14.80;96.50
34644;DHT22;26931;43.498;-1.506;2023-04-15T02:01:15;14.80;96.20
34644;DHT22;26931;43.498;-1.506;2023-04-15T02:03:41;14.80;96.20
34644;DHT22;26931;43.498;-1.506;2023-04-15T02:06:08;14.80;96.10
34644;DHT22;26931;43.498;-1.506;2023-04-15T02:08:34;14.80;96.00
34644;DHT22;26931;43.498;-1.506;2023-04-15T02:11:00;14.80;96.00
34644;DHT22;26931;43.498;-1.506;2023-04-15T02:13:25;14.80;96.00
34644;DHT22;26931;43.498;-1.506;2023-04-15T02:15:53;14.80;95.90
34644;DHT22;26931;43.498;-1.506;2023-04-15T02:18:20;14.80;95.80
34644;DHT22;26931;43.498;-1.506;2023-04-15T02:20:46;14.80;95.80
34644;DHT22;26931;43.498;-1.506;2023-04-15T02:23:13;14.80;95.70
34644;DHT22;26931;43.498;-1.506;2023-04-15T02:25:39;14.80;95.70
34644;DHT22;26931;43.498;-1.506;2023-04-15T02:28:05;14.80;95.70
34644;DHT22;26931;43.498;-1.506;2023-04-15T02:30:32;14.80;95.60
34644;DHT22;26931;43.498;-1.506;2023-04-15T02:32:59;14.80;95.70
34644;DHT22;26931;43.498;-1.506;2023-04-15T02:35:25;14.80;95.70
34644;DHT22;26931;43.498;-1.506;2023-04-15T02:37:51;14.80;95.70
34644;DHT22;26931;43.498;-1.506;2023-04-15T02:40:17;14.80;95.80
34644;DHT22;26931;43.498;-1.506;2023-04-15T02:42:43;14.80;95.90
34644;DHT22;26931;43.498;-1.506;2023-04-15T02:45:10;14.80;96.00
34644;DHT22;26931;43.498;-1.506;2023-04-15T02:47:39;14.80;96.20
34644;DHT22;26931;43.498;-1.506;2023-04-15T02:50:11;14.80;96.30
34644;DHT22;26931;43.498;-1.506;2023-04-15T02:52:41;14.80;96.50
34644;DHT22;26931;43.498;-1.506;2023-04-15T02:55:08;14.80;96.60
34644;DHT22;26931;43.498;-1.506;2023-04-15T02:57:34;14.80;96.60
34644;DHT22;26931;43.498;-1.506;2023-04-15T03:00:03;15.10;96.90
34644;DHT22;26931;43.498;-1.506;2023-04-15T03:02:36;14.80;96.90
34644;DHT22;26931;43.498;-1.506;2023-04-15T03:05:02;14.90;97.00
34644;DHT22;26931;43.498;-1.506;2023-04-15T03:07:29;14.70;96.90
34644;DHT22;26931;43.498;-1.506;2023-04-15T03:09:55;14.80;96.80
34644;DHT22;26931;43.498;-1.506;2023-04-15T03:12:21;14.80;96.80
34644;DHT22;26931;43.498;-1.506;2023-04-15T03:14:47;14.80;96.70
34644;DHT22;26931;43.498;-1.506;2023-04-15T03:17:13;14.80;96.60
34644;DHT22;26931;43.498;-1.506;2023-04-15T03:19:39;14.80;96.60
34644;DHT22;26931;43.498;-1.506;2023-04-15T03:22:05;14.80;96.50
34644;DHT22;26931;43.498;-1.506;2023-04-15T03:24:31;14.80;96.40
34644;DHT22;26931;43.498;-1.506;2023-04-15T03:26:57;14.80;96.40
34644;DHT22;26931;43.498;-1.506;2023-04-15T03:29:23;14.80;96.30
34644;DHT22;26931;43.498;-1.506;2023-04-15T03:31:50;14.80;96.30
34644;DHT22;26931;43.498;-1.506;2023-04-15T03:34:16;14.80;96.30
34644;DHT22;26931;43.498;-1.506;2023-04-15T03:36:42;14.80;96.30
34644;DHT22;26931;43.498;-1.506;2023-04-15T03:39:08;14.80;96.40
34644;DHT22;26931;43.498;-1.506;2023-04-15T03:41:34;14.80;96.60
34644;DHT22;26931;43.498;-1.506;2023-04-15T03:44:00;14.80;96.60
34644;DHT22;26931;43.498;-1.506;2023-04-15T03:46:26;14.80;96.80
34644;DHT22;26931;43.498;-1.506;2023-04-15T03:48:52;14.80;96.60
34644;DHT22;26931;43.498;-1.506;2023-04-15T03:51:18;14.80;96.70
34644;DHT22;26931;43.498;-1.506;2023-04-15T03:53:44;14.80;96.60
34644;DHT22;26931;43.498;-1.506;2023-04-15T03:56:10;14.80;96.70
34644;DHT22;26931;43.498;-1.506;2023-04-15T03:58:36;15.00;96.90
34644;DHT22;26931;43.498;-1.506;2023-04-15T04:01:02;14.80;97.00
34644;DHT22;26931;43.498;-1.506;2023-04-15T04:03:28;14.80;97.20
34644;DHT22;26931;43.498;-1.506;2023-04-15T04:05:54;14.70;97.30
34644;DHT22;26931;43.498;-1.506;2023-04-15T04:08:20;14.80;97.40
34644;DHT22;26931;43.498;-1.506;2023-04-15T04:10:47;14.80;97.50
34644;DHT22;26931;43.498;-1.506;2023-04-15T04:13:13;14.80;97.60
34644;DHT22;26931;43.498;-1.506;2023-04-15T04:15:39;14.70;97.70
34644;DHT22;26931;43.498;-1.506;2023-04-15T04:18:05;14.80;97.70
34644;DHT22;26931;43.498;-1.506;2023-04-15T04:20:31;14.80;97.80
34644;DHT22;26931;43.498;-1.506;2023-04-15T04:22:57;15.00;97.80
34644;DHT22;26931;43.498;-1.506;2023-04-15T04:25:23;14.80;97.70
34644;DHT22;26931;43.498;-1.506;2023-04-15T04:27:50;14.70;97.50
34644;DHT22;26931;43.498;-1.506;2023-04-15T04:30:16;14.70;97.30
34644;DHT22;26931;43.498;-1.506;2023-04-15T04:32:42;14.70;97.00
34644;DHT22;26931;43.498;-1.506;2023-04-15T04:35:08;14.60;96.70
34644;DHT22;26931;43.498;-1.506;2023-04-15T04:37:34;14.60;96.50
34644;DHT22;26931;43.498;-1.506;2023-04-15T04:40:01;14.50;96.30
34644;DHT22;26931;43.498;-1.506;2023-04-15T04:42:27;14.50;96.10
34644;DHT22;26931;43.498;-1.506;2023-04-15T04:44:53;14.40;96.00
34644;DHT22;26931;43.498;-1.506;2023-04-15T04:47:19;14.70;96.20
34644;DHT22;26931;43.498;-1.506;2023-04-15T04:49:45;14.40;96.10
34644;DHT22;26931;43.498;-1.506;2023-04-15T04:52:11;14.40;96.20
34644;DHT22;26931;43.498;-1.506;2023-04-15T04:54:37;14.30;96.40
34644;DHT22;26931;43.498;-1.506;2023-04-15T04:57:03;14.30;96.50
34644;DHT22;26931;43.498;-1.506;2023-04-15T04:59:29;14.50;96.70
34644;DHT22;26931;43.498;-1.506;2023-04-15T05:01:56;14.40;96.70
34644;DHT22;26931;43.498;-1.506;2023-04-15T05:04:22;14.70;96.90
34644;DHT22;26931;43.498;-1.506;2023-04-15T05:06:48;14.50;96.90
34644;DHT22;26931;43.498;-1.506;2023-04-15T05:09:14;14.60;97.00
34644;DHT22;26931;43.498;-1.506;2023-04-15T05:11:40;14.50;97.00
34644;DHT22;26931;43.498;-1.506;2023-04-15T05:14:06;14.50;97.00
34644;DHT22;26931;43.498;-1.506;2023-04-15T05:16:32;14.50;96.80
34644;DHT22;26931;43.498;-1.506;2023-04-15T05:18:58;14.70;96.60
34644;DHT22;26931;43.498;-1.506;2023-04-15T05:21:24;14.50;96.30
34644;DHT22;26931;43.498;-1.506;2023-04-15T05:23:50;14.50;96.00
34644;DHT22;26931;43.498;-1.506;2023-04-15T05:26:16;14.50;95.90
34644;DHT22;26931;43.498;-1.506;2023-04-15T05:28:42;14.50;95.80
34644;DHT22;26931;43.498;-1.506;2023-04-15T05:31:08;14.50;95.70
34644;DHT22;26931;43.498;-1.506;2023-04-15T05:33:35;14.50;95.60
34644;DHT22;26931;43.498;-1.506;2023-04-15T05:36:01;14.50;95.50
34644;DHT22;26931;43.498;-1.506;2023-04-15T05:38:26;14.70;95.40
34644;DHT22;26931;43.498;-1.506;2023-04-15T05:40:52;14.50;95.40
34644;DHT22;26931;43.498;-1.506;2023-04-15T05:43:18;14.50;95.40
34644;DHT22;26931;43.498;-1.506;2023-04-15T05:45:44;14.50;95.50
34644;DHT22;26931;43.498;-1.506;2023-04-15T05:48:09;14.60;95.60
34644;DHT22;26931;43.498;-1.506;2023-04-15T05:50:35;14.60;95.70
34644;DHT22;26931;43.498;-1.506;2023-04-15T05:53:01;14.60;95.80
34644;DHT22;26931;43.498;-1.506;2023-04-15T05:55:27;14.60;95.80
34644;DHT22;26931;43.498;-1.506;2023-04-15T05:57:53;14.60;95.80
34644;DHT22;26931;43.498;-1.506;2023-04-15T06:00:19;14.60;95.90
34644;DHT22;26931;43.498;-1.506;2023-04-15T06:02:46;14.60;96.00
34644;DHT22;26931;43.498;-1.506;2023-04-15T06:05:12;14.50;96.20
34644;DHT22;26931;43.498;-1.506;2023-04-15T06:07:39;14.60;96.40
34644;DHT22;26931;43.498;-1.506;2023-04-15T06:10:05;14.60;96.40
34644;DHT22;26931;43.498;-1.506;2023-04-15T06:12:32;14.60;96.60
34644;DHT22;26931;43.498;-1.506;2023-04-15T06:14:58;14.60;96.70
34644;DHT22;26931;43.498;-1.506;2023-04-15T06:17:24;14.60;96.90
34644;DHT22;26931;43.498;-1.506;2023-04-15T06:19:50;14.60;97.00
34644;DHT22;26931;43.498;-1.506;2023-04-15T06:22:20;14.80;97.10
34644;DHT22;26931;43.498;-1.506;2023-04-15T06:24:48;14.60;97.00
34644;DHT22;26931;43.498;-1.506;2023-04-15T06:27:17;14.50;96.90
34644;DHT22;26931;43.498;-1.506;2023-04-15T06:29:43;14.50;96.80
34644;DHT22;26931;43.498;-1.506;2023-04-15T06:32:09;14.50;96.80
34644;DHT22;26931;43.498;-1.506;2023-04-15T06:34:36;14.50;96.70
34644;DHT22;26931;43.498;-1.506;2023-04-15T06:37:02;14.60;96.80
34644;DHT22;26931;43.498;-1.506;2023-04-15T06:39:28;14.40;96.60
34644;DHT22;26931;43.498;-1.506;2023-04-15T06:41:54;14.50;96.50
34644;DHT22;26931;43.498;-1.506;2023-04-15T06:44:21;14.60;96.50
34644;DHT22;26931;43.498;-1.506;2023-04-15T06:46:47;14.60;96.50
34644;DHT22;26931;43.498;-1.506;2023-04-15T06:49:13;14.90;96.70
34644;DHT22;26931;43.498;-1.506;2023-04-15T06:51:40;14.70;96.60
34644;DHT22;26931;43.498;-1.506;2023-04-15T06:54:07;14.60;96.60
34644;DHT22;26931;43.498;-1.506;2023-04-15T06:56:33;15.00;96.70
34644;DHT22;26931;43.498;-1.506;2023-04-15T06:58:59;14.80;96.70
34644;DHT22;26931;43.498;-1.506;2023-04-15T07:01:25;14.80;96.60
34644;DHT22;26931;43.498;-1.506;2023-04-15T07:03:52;14.80;96.50
34644;DHT22;26931;43.498;-1.506;2023-04-15T07:06:17;14.80;96.40
34644;DHT22;26931;43.498;-1.506;2023-04-15T07:08:44;14.80;96.30
34644;DHT22;26931;43.498;-1.506;2023-04-15T07:11:10;14.80;96.20
34644;DHT22;26931;43.498;-1.506;2023-04-15T07:13:36;14.80;96.20
34644;DHT22;26931;43.498;-1.506;2023-04-15T07:16:02;14.70;96.20
34644;DHT22;26931;43.498;-1.506;2023-04-15T07:18:28;14.80;96.20
34644;DHT22;26931;43.498;-1.506;2023-04-15T07:20:54;14.80;96.20
34644;DHT22;26931;43.498;-1.506;2023-04-15T07:23:20;14.90;96.10
34644;DHT22;26931;43.498;-1.506;2023-04-15T07:25:48;14.90;96.10
34644;DHT22;26931;43.498;-1.506;2023-04-15T07:28:14;14.90;96.10
34644;DHT22;26931;43.498;-1.506;2023-04-15T07:30:40;14.90;96.20
34644;DHT22;26931;43.498;-1.506;2023-04-15T07:33:06;14.90;96.30
34644;DHT22;26931;43.498;-1.506;2023-04-15T07:35:31;14.90;96.30
34644;DHT22;26931;43.498;-1.506;2023-04-15T07:37:58;14.90;96.30
34644;DHT22;26931;43.498;-1.506;2023-04-15T07:40:24;14.80;96.30
34644;DHT22;26931;43.498;-1.506;2023-04-15T07:42:50;14.80;96.50
34644;DHT22;26931;43.498;-1.506;2023-04-15T07:45:16;14.80;96.70
34644;DHT22;26931;43.498;-1.506;2023-04-15T07:47:42;14.80;97.00
34644;DHT22;26931;43.498;-1.506;2023-04-15T07:50:09;14.80;97.20
34644;DHT22;26931;43.498;-1.506;2023-04-15T07:52:38;14.80;97.40
34644;DHT22;26931;43.498;-1.506;2023-04-15T07:55:07;14.60;97.50
34644;DHT22;26931;43.498;-1.506;2023-04-15T07:57:34;14.50;97.70
34644;DHT22;26931;43.498;-1.506;2023-04-15T08:00:02;14.50;97.80
34644;DHT22;26931;43.498;-1.506;2023-04-15T08:02:32;14.30;97.80
34644;DHT22;26931;43.498;-1.506;2023-04-15T08:04:58;14.40;97.90
34644;DHT22;26931;43.498;-1.506;2023-04-15T08:07:24;14.40;97.90
34644;DHT22;26931;43.498;-1.506;2023-04-15T08:09:50;14.30;98.00
34644;DHT22;26931;43.498;-1.506;2023-04-15T08:12:16;14.30;98.00
34644;DHT22;26931;43.498;-1.506;2023-04-15T08:14:42;14.40;98.10
34644;DHT22;26931;43.498;-1.506;2023-04-15T08:17:08;14.40;98.00
34644;DHT22;26931;43.498;-1.506;2023-04-15T08:19:34;14.40;98.00
34644;DHT22;26931;43.498;-1.506;2023-04-15T08:22:00;14.40;98.00
34644;DHT22;26931;43.498;-1.506;2023-04-15T08:24:26;14.20;97.90
34644;DHT22;26931;43.498;-1.506;2023-04-15T08:26:52;14.40;97.80
34644;DHT22;26931;43.498;-1.506;2023-04-15T08:29:18;14.40;97.70
34644;DHT22;26931;43.498;-1.506;2023-04-15T08:31:44;14.40;97.60
34644;DHT22;26931;43.498;-1.506;2023-04-15T08:34:11;14.40;97.50
34644;DHT22;26931;43.498;-1.506;2023-04-15T08:36:37;14.40;97.40
34644;DHT22;26931;43.498;-1.506;2023-04-15T08:39:04;14.50;97.30
34644;DHT22;26931;43.498;-1.506;2023-04-15T08:41:47;14.50;97.20
34644;DHT22;26931;43.498;-1.506;2023-04-15T08:44:17;14.50;97.20
34644;DHT22;26931;43.498;-1.506;2023-04-15T08:46:43;14.50;97.00
34644;DHT22;26931;43.498;-1.506;2023-04-15T08:49:12;14.50;97.00
34644;DHT22;26931;43.498;-1.506;2023-04-15T08:51:39;14.60;96.90
34644;DHT22;26931;43.498;-1.506;2023-04-15T08:54:07;14.70;96.90
34644;DHT22;26931;43.498;-1.506;2023-04-15T08:56:33;14.70;96.70
34644;DHT22;26931;43.498;-1.506;2023-04-15T08:59:00;14.70;96.50
34644;DHT22;26931;43.498;-1.506;2023-04-15T09:01:26;14.80;96.30
34644;DHT22;26931;43.498;-1.506;2023-04-15T09:03:53;14.80;96.10
34644;DHT22;26931;43.498;-1.506;2023-04-15T09:06:20;14.80;95.90
34644;DHT22;26931;43.498;-1.506;2023-04-15T09:08:46;14.90;95.70
34644;DHT22;26931;43.498;-1.506;2023-04-15T09:11:12;14.90;95.60
34644;DHT22;26931;43.498;-1.506;2023-04-15T09:13:39;15.00;95.50
34644;DHT22;26931;43.498;-1.506;2023-04-15T09:16:05;15.10;95.40
34644;DHT22;26931;43.498;-1.506;2023-04-15T09:18:34;15.20;95.30
34644;DHT22;26931;43.498;-1.506;2023-04-15T09:21:11;15.30;95.00
34644;DHT22;26931;43.498;-1.506;2023-04-15T09:23:39;15.40;94.70
34644;DHT22;26931;43.498;-1.506;2023-04-15T09:26:06;15.40;94.40
34644;DHT22;26931;43.498;-1.506;2023-04-15T09:28:32;15.40;94.70
34644;DHT22;26931;43.498;-1.506;2023-04-15T09:31:01;15.50;94.30
34644;DHT22;26931;43.498;-1.506;2023-04-15T09:33:28;15.50;94.20
34644;DHT22;26931;43.498;-1.506;2023-04-15T09:36:06;15.60;94.10
34644;DHT22;26931;43.498;-1.506;2023-04-15T09:38:32;15.50;93.80
34644;DHT22;26931;43.498;-1.506;2023-04-15T09:40:58;15.60;93.60
34644;DHT22;26931;43.498;-1.506;2023-04-15T09:43:38;15.50;93.30
34644;DHT22;26931;43.498;-1.506;2023-04-15T09:46:04;15.50;93.20
34644;DHT22;26931;43.498;-1.506;2023-04-15T09:48:31;15.50;93.00
34644;DHT22;26931;43.498;-1.506;2023-04-15T09:50:58;15.50;92.70
34644;DHT22;26931;43.498;-1.506;2023-04-15T09:53:25;15.50;92.50
34644;DHT22;26931;43.498;-1.506;2023-04-15T09:55:53;15.50;92.30
34644;DHT22;26931;43.498;-1.506;2023-04-15T09:58:31;15.50;92.10
34644;DHT22;26931;43.498;-1.506;2023-04-15T10:00:58;15.50;92.00
34644;DHT22;26931;43.498;-1.506;2023-04-15T10:03:27;15.50;92.00
34644;DHT22;26931;43.498;-1.506;2023-04-15T10:05:55;15.50;92.10
34644;DHT22;26931;43.498;-1.506;2023-04-15T10:08:29;15.50;92.10
34644;DHT22;26931;43.498;-1.506;2023-04-15T10:10:56;15.60;92.10
34644;DHT22;26931;43.498;-1.506;2023-04-15T10:13:24;15.50;91.90
34644;DHT22;26931;43.498;-1.506;2023-04-15T10:16:00;15.60;91.80
34644;DHT22;26931;43.498;-1.506;2023-04-15T10:18:34;15.50;91.50
34644;DHT22;26931;43.498;-1.506;2023-04-15T10:21:00;15.60;91.40
34644;DHT22;26931;43.498;-1.506;2023-04-15T10:23:27;15.50;91.20
34644;DHT22;26931;43.498;-1.506;2023-04-15T10:25:53;15.60;91.10
34644;DHT22;26931;43.498;-1.506;2023-04-15T10:28:20;15.60;90.90
34644;DHT22;26931;43.498;-1.506;2023-04-15T10:30:49;15.60;90.70
34644;DHT22;26931;43.498;-1.506;2023-04-15T10:33:22;15.70;90.80
34644;DHT22;26931;43.498;-1.506;2023-04-15T10:35:49;15.70;90.80
34644;DHT22;26931;43.498;-1.506;2023-04-15T10:38:38;15.70;90.70
34644;DHT22;26931;43.498;-1.506;2023-04-15T10:41:22;15.70;90.60
34644;DHT22;26931;43.498;-1.506;2023-04-15T10:44:01;15.70;90.50
34644;DHT22;26931;43.498;-1.506;2023-04-15T10:46:44;15.70;90.40
34644;DHT22;26931;43.498;-1.506;2023-04-15T10:49:23;15.70;90.30
34644;DHT22;26931;43.498;-1.506;2023-04-15T10:51:56;15.70;90.20
34644;DHT22;26931;43.498;-1.506;2023-04-15T10:59:35;15.70;89.40
34644;DHT22;26931;43.498;-1.506;2023-04-15T11:02:07;15.70;89.30
34644;DHT22;26931;43.498;-1.506;2023-04-15T11:04:52;15.70;88.90
34644;DHT22;26931;43.498;-1.506;2023-04-15T11:12:46;15.80;88.70
34644;DHT22;26931;43.498;-1.506;2023-04-15T11:15:38;15.80;88.50
34644;DHT22;26931;43.498;-1.506;2023-04-15T11:18:19;15.80;87.90
34644;DHT22;26931;43.498;-1.506;2023-04-15T11:21:05;15.80;87.90
34644;DHT22;26931;43.498;-1.506;2023-04-15T11:23:37;15.80;87.80
34644;DHT22;26931;43.498;-1.506;2023-04-15T11:26:05;15.90;88.00
34644;DHT22;26931;43.498;-1.506;2023-04-15T11:28:34;15.70;87.80
34644;DHT22;26931;43.498;-1.506;2023-04-15T11:31:15;15.90;87.50
34644;DHT22;26931;43.498;-1.506;2023-04-15T11:33:56;15.90;87.10
34644;DHT22;26931;43.498;-1.506;2023-04-15T11:36:24;15.90;86.70
34644;DHT22;26931;43.498;-1.506;2023-04-15T11:38:51;15.90;86.70
34644;DHT22;26931;43.498;-1.506;2023-04-15T11:41:21;16.00;86.70
34644;DHT22;26931;43.498;-1.506;2023-04-15T11:43:47;16.00;86.70
34644;DHT22;26931;43.498;-1.506;2023-04-15T11:46:13;16.00;86.70
34644;DHT22;26931;43.498;-1.506;2023-04-15T11:48:42;16.00;86.00
34644;DHT22;26931;43.498;-1.506;2023-04-15T11:51:09;16.00;85.80
34644;DHT22;26931;43.498;-1.506;2023-04-15T11:53:49;16.00;85.80
34644;DHT22;26931;43.498;-1.506;2023-04-15T11:56:22;16.10;85.60
34644;DHT22;26931;43.498;-1.506;2023-04-15T11:58:51;16.00;85.40
34644;DHT22;26931;43.498;-1.506;2023-04-15T12:01:18;16.20;85.40
34644;DHT22;26931;43.498;-1.506;2023-04-15T12:03:48;16.20;85.50
34644;DHT22;26931;43.498;-1.506;2023-04-15T12:06:21;16.00;85.40
34644;DHT22;26931;43.498;-1.506;2023-04-15T12:13:54;16.00;85.00
34644;DHT22;26931;43.498;-1.506;2023-04-15T12:16:22;15.90;84.70
34644;DHT22;26931;43.498;-1.506;2023-04-15T12:18:53;16.00;84.70
34644;DHT22;26931;43.498;-1.506;2023-04-15T12:21:25;16.00;84.50
34644;DHT22;26931;43.498;-1.506;2023-04-15T12:23:53;16.00;84.40
34644;DHT22;26931;43.498;-1.506;2023-04-15T12:26:48;16.10;84.50
34644;DHT22;26931;43.498;-1.506;2023-04-15T12:29:16;16.00;84.10
34644;DHT22;26931;43.498;-1.506;2023-04-15T12:31:50;16.00;84.30
34644;DHT22;26931;43.498;-1.506;2023-04-15T12:34:17;16.00;84.40
34644;DHT22;26931;43.498;-1.506;2023-04-15T12:36:44;16.00;84.50
34644;DHT22;26931;43.498;-1.506;2023-04-15T12:39:10;15.80;84.30
34644;DHT22;26931;43.498;-1.506;2023-04-15T12:41:36;16.00;84.30
34644;DHT22;26931;43.498;-1.506;2023-04-15T12:44:02;16.10;84.40
34644;DHT22;26931;43.498;-1.506;2023-04-15T12:46:28;16.10;84.20
34644;DHT22;26931;43.498;-1.506;2023-04-15T12:48:55;16.00;84.10
34644;DHT22;26931;43.498;-1.506;2023-04-15T12:51:21;16.00;84.00
34644;DHT22;26931;43.498;-1.506;2023-04-15T12:53:48;16.00;83.90
34644;DHT22;26931;43.498;-1.506;2023-04-15T12:56:14;16.00;83.90
34644;DHT22;26931;43.498;-1.506;2023-04-15T12:58:43;15.90;83.50
34644;DHT22;26931;43.498;-1.506;2023-04-15T13:01:09;15.80;83.30
34644;DHT22;26931;43.498;-1.506;2023-04-15T13:03:35;15.80;83.50
34644;DHT22;26931;43.498;-1.506;2023-04-15T13:06:01;15.90;83.40
34644;DHT22;26931;43.498;-1.506;2023-04-15T13:08:29;15.80;83.60
34644;DHT22;26931;43.498;-1.506;2023-04-15T13:10:57;15.80;83.40
34644;DHT22;26931;43.498;-1.506;2023-04-15T13:13:23;15.80;83.40
34644;DHT22;26931;43.498;-1.506;2023-04-15T13:15:49;15.80;83.00
34644;DHT22;26931;43.498;-1.506;2023-04-15T13:18:15;15.70;83.00
34644;DHT22;26931;43.498;-1.506;2023-04-15T13:20:41;15.80;83.00
34644;DHT22;26931;43.498;-1.506;2023-04-15T13:23:07;15.80;83.00
34644;DHT22;26931;43.498;-1.506;2023-04-15T13:25:37;15.80;83.00
34644;DHT22;26931;43.498;-1.506;2023-04-15T13:28:05;15.80;82.80
34644;DHT22;26931;43.498;-1.506;2023-04-15T13:30:31;15.70;82.80
34644;DHT22;26931;43.498;-1.506;2023-04-15T13:32:57;15.70;82.80
34644;DHT22;26931;43.498;-1.506;2023-04-15T13:35:23;15.90;82.90
34644;DHT22;26931;43.498;-1.506;2023-04-15T13:37:49;15.80;82.90
34644;DHT22;26931;43.498;-1.506;2023-04-15T13:40:14;15.80;83.00
34644;DHT22;26931;43.498;-1.506;2023-04-15T13:42:41;15.90;83.30
34644;DHT22;26931;43.498;-1.506;2023-04-15T13:45:07;15.80;83.50
34644;DHT22;26931;43.498;-1.506;2023-04-15T13:47:33;15.90;83.40
34644;DHT22;26931;43.498;-1.506;2023-04-15T13:50:02;15.90;83.50
34644;DHT22;26931;43.498;-1.506;2023-04-15T13:52:28;15.90;83.40
34644;DHT22;26931;43.498;-1.506;2023-04-15T13:54:53;15.90;83.50
34644;DHT22;26931;43.498;-1.506;2023-04-15T13:57:19;15.80;83.60
34644;DHT22;26931;43.498;-1.506;2023-04-15T13:59:45;15.90;83.70
34644;DHT22;26931;43.498;-1.506;2023-04-15T14:02:11;15.80;83.20
34644;DHT22;26931;43.498;-1.506;2023-04-15T14:04:37;15.90;83.00
34644;DHT22;26931;43.498;-1.506;2023-04-15T14:07:02;15.80;82.90
34644;DHT22;26931;43.498;-1.506;2023-04-15T14:09:28;15.90;82.90
34644;DHT22;26931;43.498;-1.506;2023-04-15T14:11:54;15.90;82.80
34644;DHT22;26931;43.498;-1.506;2023-04-15T14:14:21;15.90;83.30
34644;DHT22;26931;43.498;-1.506;2023-04-15T14:16:47;15.90;82.50
34644;DHT22;26931;43.498;-1.506;2023-04-15T14:19:13;15.80;82.30
34644;DHT22;26931;43.498;-1.506;2023-04-15T14:21:39;16.00;82.70
34644;DHT22;26931;43.498;-1.506;2023-04-15T14:24:05;16.00;83.00
34644;DHT22;26931;43.498;-1.506;2023-04-15T14:26:31;16.00;83.20
34644;DHT22;26931;43.498;-1.506;2023-04-15T14:28:57;16.00;83.40
34644;DHT22;26931;43.498;-1.506;2023-04-15T14:31:23;16.00;83.60
34644;DHT22;26931;43.498;-1.506;2023-04-15T14:33:49;16.00;84.00
34644;DHT22;26931;43.498;-1.506;2023-04-15T14:36:15;16.00;84.10
34644;DHT22;26931;43.498;-1.506;2023-04-15T14:38:41;16.00;84.00
34644;DHT22;26931;43.498;-1.506;2023-04-15T14:41:08;16.00;84.00
34644;DHT22;26931;43.498;-1.506;2023-04-15T14:43:34;16.00;83.90
34644;DHT22;26931;43.498;-1.506;2023-04-15T14:46:00;16.00;83.70
34644;DHT22;26931;43.498;-1.506;2023-04-15T14:48:27;16.00;83.50
34644;DHT22;26931;43.498;-1.506;2023-04-15T14:50:53;15.90;83.30
34644;DHT22;26931;43.498;-1.506;2023-04-15T14:53:19;15.90;83.50
34644;DHT22;26931;43.498;-1.506;2023-04-15T14:55:45;15.90;83.60
34644;DHT22;26931;43.498;-1.506;2023-04-15T14:58:11;16.00;83.70
34644;DHT22;26931;43.498;-1.506;2023-04-15T15:00:40;16.00;83.70
34644;DHT22;26931;43.498;-1.506;2023-04-15T15:03:09;15.90;83.70
34644;DHT22;26931;43.498;-1.506;2023-04-15T15:05:44;16.00;83.90
34644;DHT22;26931;43.498;-1.506;2023-04-15T15:08:11;16.00;84.00
34644;DHT22;26931;43.498;-1.506;2023-04-15T15:10:38;16.00;84.00
34644;DHT22;26931;43.498;-1.506;2023-04-15T15:13:08;16.00;84.00
34644;DHT22;26931;43.498;-1.506;2023-04-15T15:15:36;16.00;84.20
34644;DHT22;26931;43.498;-1.506;2023-04-15T15:18:02;16.00;84.20
34644;DHT22;26931;43.498;-1.506;2023-04-15T15:20:29;15.90;84.20
34644;DHT22;26931;43.498;-1.506;2023-04-15T15:22:56;15.90;84.50
34644;DHT22;26931;43.498;-1.506;2023-04-15T15:25:22;15.90;84.50
34644;DHT22;26931;43.498;-1.506;2023-04-15T15:27:48;16.00;84.70
34644;DHT22;26931;43.498;-1.506;2023-04-15T15:30:14;16.00;84.90
34644;DHT22;26931;43.498;-1.506;2023-04-15T15:32:41;16.00;85.10